sensor_id;sensor_type;location;lat;lon;timestamp;temperature;humidity
59025;DHT22;44806;48.008;13.666;2023-03-01T00:00:17;2.20;96.50
59025;DHT22;44806;48.008;13.666;2023-03-01T00:02:44;2.10;96.60
59025;DHT22;44806;48.008;13.666;2023-03-01T00:05:12;2.10;97.10
59025;DHT22;44806;48.008;13.666;2023-03-01T00:07:39;2.00;96.60
59025;DHT22;44806;48.008;13.666;2023-03-01T00:10:07;2.00;96.60
59025;DHT22;44806;48.008;13.666;2023-03-01T00:12:34;1.90;96.50
59025;DHT22;44806;48.008;13.666;2023-03-01T00:15:02;1.90;97.10
59025;DHT22;44806;48.008;13.666;2023-03-01T00:17:30;1.90;97.00
59025;DHT22;44806;48.008;13.666;2023-03-01T00:19:57;1.90;97.30
59025;DHT22;44806;48.008;13.666;2023-03-01T00:22:26;1.80;97.30
59025;DHT22;44806;48.008;13.666;2023-03-01T00:24:54;1.70;97.70
59025;DHT22;44806;48.008;13.666;2023-03-01T00:27:20;1.70;97.40
59025;DHT22;44806;48.008;13.666;2023-03-01T00:29:47;1.70;97.50
59025;DHT22;44806;48.008;13.666;2023-03-01T00:32:14;1.60;98.00
59025;DHT22;44806;48.008;13.666;2023-03-01T00:34:41;1.50;97.90
59025;DHT22;44806;48.008;13.666;2023-03-01T00:37:08;1.50;97.40
59025;DHT22;44806;48.008;13.666;2023-03-01T00:39:37;1.50;98.00
59025;DHT22;44806;48.008;13.666;2023-03-01T00:42:04;1.50;98.20
59025;DHT22;44806;48.008;13.666;2023-03-01T00:44:31;1.50;98.30
59025;DHT22;44806;48.008;13.666;2023-03-01T00:46:59;1.40;98.30
59025;DHT22;44806;48.008;13.666;2023-03-01T00:49:26;1.40;98.20
59025;DHT22;44806;48.008;13.666;2023-03-01T00:51:54;1.30;97.70
59025;DHT22;44806;48.008;13.666;2023-03-01T00:54:21;1.30;98.10
59025;DHT22;44806;48.008;13.666;2023-03-01T00:56:49;1.30;98.20
59025;DHT22;44806;48.008;13.666;2023-03-01T00:59:16;1.20;98.30
59025;DHT22;44806;48.008;13.666;2023-03-01T01:01:43;1.10;98.40
59025;DHT22;44806;48.008;13.666;2023-03-01T01:04:11;1.10;98.40
59025;DHT22;44806;48.008;13.666;2023-03-01T01:06:39;1.10;98.70
59025;DHT22;44806;48.008;13.666;2023-03-01T01:09:08;1.00;99.10
59025;DHT22;44806;48.008;13.666;2023-03-01T01:11:43;1.00;98.80
59025;DHT22;44806;48.008;13.666;2023-03-01T01:14:11;0.90;98.50
59025;DHT22;44806;48.008;13.666;2023-03-01T01:16:38;0.90;99.10
59025;DHT22;44806;48.008;13.666;2023-03-01T01:19:05;0.80;99.10
59025;DHT22;44806;48.008;13.666;2023-03-01T01:21:32;0.80;99.70
59025;DHT22;44806;48.008;13.666;2023-03-01T01:23:59;0.90;99.90
59025;DHT22;44806;48.008;13.666;2023-03-01T01:26:28;0.90;99.60
59025;DHT22;44806;48.008;13.666;2023-03-01T01:28:55;0.90;99.80
59025;DHT22;44806;48.008;13.666;2023-03-01T01:31:24;1.00;99.00
59025;DHT22;44806;48.008;13.666;2023-03-01T01:33:52;0.90;99.20
59025;DHT22;44806;48.008;13.666;2023-03-01T01:36:19;0.90;98.90
59025;DHT22;44806;48.008;13.666;2023-03-01T01:38:46;0.90;99.80
59025;DHT22;44806;48.008;13.666;2023-03-01T01:41:14;1.00;99.10
59025;DHT22;44806;48.008;13.666;2023-03-01T01:43:42;0.90;99.00
59025;DHT22;44806;48.008;13.666;2023-03-01T01:46:16;0.90;99.40
59025;DHT22;44806;48.008;13.666;2023-03-01T01:48:48;0.90;99.10
59025;DHT22;44806;48.008;13.666;2023-03-01T01:51:19;0.80;99.20
59025;DHT22;44806;48.008;13.666;2023-03-01T01:53:50;0.80;99.30
59025;DHT22;44806;48.008;13.666;2023-03-01T01:56:19;0.90;99.60
59025;DHT22;44806;48.008;13.666;2023-03-01T01:58:47;0.80;99.00
59025;DHT22;44806;48.008;13.666;2023-03-01T02:01:14;0.70;99.40
59025;DHT22;44806;48.008;13.666;2023-03-01T02:03:45;0.80;99.60
59025;DHT22;44806;48.008;13.666;2023-03-01T02:06:18;0.70;99.60
59025;DHT22;44806;48.008;13.666;2023-03-01T02:08:47;0.70;99.90
59025;DHT22;44806;48.008;13.666;2023-03-01T02:11:15;0.70;99.90
59025;DHT22;44806;48.008;13.666;2023-03-01T02:13:42;0.50;99.80
59025;DHT22;44806;48.008;13.666;2023-03-01T02:16:11;0.60;99.90
59025;DHT22;44806;48.008;13.666;2023-03-01T02:18:40;0.50;99.90
59025;DHT22;44806;48.008;13.666;2023-03-01T02:21:21;0.50;99.90
59025;DHT22;44806;48.008;13.666;2023-03-01T02:23:51;0.50;99.90
59025;DHT22;44806;48.008;13.666;2023-03-01T02:26:22;0.50;99.90
59025;DHT22;44806;48.008;13.666;2023-03-01T02:28:52;0.50;99.90
59025;DHT22;44806;48.008;13.666;2023-03-01T02:31:20;0.50;99.90
59025;DHT22;44806;48.008;13.666;2023-03-01T02:34:06;0.40;99.90
59025;DHT22;44806;48.008;13.666;2023-03-01T02:36:36;0.50;99.90
59025;DHT22;44806;48.008;13.666;2023-03-01T02:39:06;0.60;99.90
59025;DHT22;44806;48.008;13.666;2023-03-01T02:41:35;0.50;99.90
59025;DHT22;44806;48.008;13.666;2023-03-01T02:44:05;0.50;99.90
59025;DHT22;44806;48.008;13.666;2023-03-01T02:46:41;0.50;99.90
59025;DHT22;44806;48.008;13.666;2023-03-01T02:49:19;0.50;99.90
59025;DHT22;44806;48.008;13.666;2023-03-01T02:51:56;0.50;99.90
59025;DHT22;44806;48.008;13.666;2023-03-01T02:54:30;0.40;99.90
59025;DHT22;44806;48.008;13.666;2023-03-01T02:56:58;0.40;99.90
59025;DHT22;44806;48.008;13.666;2023-03-01T02:59:30;0.30;99.90
59025;DHT22;44806;48.008;13.666;2023-03-01T03:01:57;0.30;99.90
59025;DHT22;44806;48.008;13.666;2023-03-01T03:04:26;0.20;99.90
59025;DHT22;44806;48.008;13.666;2023-03-01T03:06:53;0.20;99.90
59025;DHT22;44806;48.008;13.666;2023-03-01T03:09:20;0.20;99.90
59025;DHT22;44806;48.008;13.666;2023-03-01T03:11:48;0.20;99.90
59025;DHT22;44806;48.008;13.666;2023-03-01T03:14:16;0.20;99.90
59025;DHT22;44806;48.008;13.666;2023-03-01T03:16:46;0.10;99.90
59025;DHT22;44806;48.008;13.666;2023-03-01T03:19:14;0.10;99.90
59025;DHT22;44806;48.008;13.666;2023-03-01T03:21:42;0.10;99.90
59025;DHT22;44806;48.008;13.666;2023-03-01T03:24:09;0.10;99.90
59025;DHT22;44806;48.008;13.666;2023-03-01T03:26:36;0.10;99.90
59025;DHT22;44806;48.008;13.666;2023-03-01T03:29:03;0.20;99.90
59025;DHT22;44806;48.008;13.666;2023-03-01T03:31:30;0.20;99.90
59025;DHT22;44806;48.008;13.666;2023-03-01T03:33:58;0.20;99.90
59025;DHT22;44806;48.008;13.666;2023-03-01T03:36:25;0.20;99.90
59025;DHT22;44806;48.008;13.666;2023-03-01T03:38:52;0.20;99.90
59025;DHT22;44806;48.008;13.666;2023-03-01T03:41:19;0.20;99.90
59025;DHT22;44806;48.008;13.666;2023-03-01T03:43:46;0.20;99.90
59025;DHT22;44806;48.008;13.666;2023-03-01T03:46:14;0.20;99.90
59025;DHT22;44806;48.008;13.666;2023-03-01T03:48:43;0.20;99.90
59025;DHT22;44806;48.008;13.666;2023-03-01T03:51:13;0.20;99.90
59025;DHT22;44806;48.008;13.666;2023-03-01T03:53:41;0.20;99.90
59025;DHT22;44806;48.008;13.666;2023-03-01T03:56:09;0.20;99.90
59025;DHT22;44806;48.008;13.666;2023-03-01T03:58:36;0.20;99.90
59025;DHT22;44806;48.008;13.666;2023-03-01T04:01:03;0.30;99.90
59025;DHT22;44806;48.008;13.666;2023-03-01T04:03:31;0.20;99.90
59025;DHT22;44806;48.008;13.666;2023-03-01T04:06:00;0.20;99.90
59025;DHT22;44806;48.008;13.666;2023-03-01T04:08:28;0.20;99.90
59025;DHT22;44806;48.008;13.666;2023-03-01T04:10:58;0.30;99.90
59025;DHT22;44806;48.008;13.666;2023-03-01T04:13:25;0.20;99.90
59025;DHT22;44806;48.008;13.666;2023-03-01T04:15:53;0.30;99.90
59025;DHT22;44806;48.008;13.666;2023-03-01T04:18:21;0.30;99.90
59025;DHT22;44806;48.008;13.666;2023-03-01T04:20:49;0.20;99.90
59025;DHT22;44806;48.008;13.666;2023-03-01T04:23:19;0.20;99.90
59025;DHT22;44806;48.008;13.666;2023-03-01T04:25:49;0.20;99.90
59025;DHT22;44806;48.008;13.666;2023-03-01T04:28:21;0.20;99.90
59025;DHT22;44806;48.008;13.666;2023-03-01T04:30:50;0.20;99.90
59025;DHT22;44806;48.008;13.666;2023-03-01T04:33:17;0.20;99.90
59025;DHT22;44806;48.008;13.666;2023-03-01T04:35:45;0.20;99.90
59025;DHT22;44806;48.008;13.666;2023-03-01T04:38:14;0.20;99.90
59025;DHT22;44806;48.008;13.666;2023-03-01T04:40:41;0.10;99.90
59025;DHT22;44806;48.008;13.666;2023-03-01T04:43:11;0.10;99.90
59025;DHT22;44806;48.008;13.666;2023-03-01T04:45:39;0.20;99.90
59025;DHT22;44806;48.008;13.666;2023-03-01T04:48:07;0.20;99.90
59025;DHT22;44806;48.008;13.666;2023-03-01T04:50:35;0.20;99.90
59025;DHT22;44806;48.008;13.666;2023-03-01T04:53:02;0.10;99.90
59025;DHT22;44806;48.008;13.666;2023-03-01T04:55:29;0.10;99.90
59025;DHT22;44806;48.008;13.666;2023-03-01T04:57:56;0.10;99.90
59025;DHT22;44806;48.008;13.666;2023-03-01T05:00:25;0.20;99.90
59025;DHT22;44806;48.008;13.666;2023-03-01T05:02:54;0.10;99.90
59025;DHT22;44806;48.008;13.666;2023-03-01T05:05:22;0.10;99.90
59025;DHT22;44806;48.008;13.666;2023-03-01T05:07:55;0.00;99.90
59025;DHT22;44806;48.008;13.666;2023-03-01T05:10:22;0.00;99.90
59025;DHT22;44806;48.008;13.666;2023-03-01T05:12:49;0.10;99.90
59025;DHT22;44806;48.008;13.666;2023-03-01T05:15:17;0.10;99.90
59025;DHT22;44806;48.008;13.666;2023-03-01T05:17:48;0.00;99.90
59025;DHT22;44806;48.008;13.666;2023-03-01T05:20:15;0.00;99.90
59025;DHT22;44806;48.008;13.666;2023-03-01T05:22:42;0.00;99.90
59025;DHT22;44806;48.008;13.666;2023-03-01T05:25:09;0.00;99.90
59025;DHT22;44806;48.008;13.666;2023-03-01T05:27:36;0.00;99.90
59025;DHT22;44806;48.008;13.666;2023-03-01T05:30:04;0.00;99.90
59025;DHT22;44806;48.008;13.666;2023-03-01T05:32:40;0.00;99.90
59025;DHT22;44806;48.008;13.666;2023-03-01T05:35:11;0.00;99.90
59025;DHT22;44806;48.008;13.666;2023-03-01T05:37:41;0.00;99.90
59025;DHT22;44806;48.008;13.666;2023-03-01T05:40:10;0.00;99.90
59025;DHT22;44806;48.008;13.666;2023-03-01T05:42:45;0.00;99.90
59025;DHT22;44806;48.008;13.666;2023-03-01T05:45:12;0.10;99.90
59025;DHT22;44806;48.008;13.666;2023-03-01T05:47:40;0.00;99.90
59025;DHT22;44806;48.008;13.666;2023-03-01T05:50:12;0.00;99.90
59025;DHT22;44806;48.008;13.666;2023-03-01T05:52:40;0.00;99.90
59025;DHT22;44806;48.008;13.666;2023-03-01T05:55:07;0.00;99.90
59025;DHT22;44806;48.008;13.666;2023-03-01T05:57:34;0.00;99.90
59025;DHT22;44806;48.008;13.666;2023-03-01T06:00:01;0.00;99.90
59025;DHT22;44806;48.008;13.666;2023-03-01T06:02:28;0.00;99.90
59025;DHT22;44806;48.008;13.666;2023-03-01T06:04:55;0.00;99.90
59025;DHT22;44806;48.008;13.666;2023-03-01T06:07:24;0.00;99.90
59025;DHT22;44806;48.008;13.666;2023-03-01T06:09:51;0.00;99.90
59025;DHT22;44806;48.008;13.666;2023-03-01T06:12:18;0.00;99.90
59025;DHT22;44806;48.008;13.666;2023-03-01T06:14:45;-0.10;99.90
59025;DHT22;44806;48.008;13.666;2023-03-01T06:17:13;-0.10;99.90
59025;DHT22;44806;48.008;13.666;2023-03-01T06:19:40;-0.10;99.90
59025;DHT22;44806;48.008;13.666;2023-03-01T06:22:07;-0.20;99.90
59025;DHT22;44806;48.008;13.666;2023-03-01T06:24:36;-0.10;99.90
59025;DHT22;44806;48.008;13.666;2023-03-01T06:27:03;-0.10;99.90
59025;DHT22;44806;48.008;13.666;2023-03-01T06:29:30;-0.10;99.90
59025;DHT22;44806;48.008;13.666;2023-03-01T06:31:56;-0.10;99.90
59025;DHT22;44806;48.008;13.666;2023-03-01T06:34:23;-0.20;99.90
59025;DHT22;44806;48.008;13.666;2023-03-01T06:36:50;-0.10;99.90
59025;DHT22;44806;48.008;13.666;2023-03-01T06:39:17;-0.20;99.90
59025;DHT22;44806;48.008;13.666;2023-03-01T06:41:45;-0.20;99.90
59025;DHT22;44806;48.008;13.666;2023-03-01T06:44:12;-0.10;99.90
59025;DHT22;44806;48.008;13.666;2023-03-01T06:46:39;-0.20;99.90
59025;DHT22;44806;48.008;13.666;2023-03-01T06:49:07;-0.20;99.90
59025;DHT22;44806;48.008;13.666;2023-03-01T06:51:35;-0.20;99.90
59025;DHT22;44806;48.008;13.666;2023-03-01T06:54:03;-0.10;99.90
59025;DHT22;44806;48.008;13.666;2023-03-01T06:56:30;-0.10;99.90
59025;DHT22;44806;48.008;13.666;2023-03-01T06:58:58;-0.10;99.90
59025;DHT22;44806;48.008;13.666;2023-03-01T07:01:25;-0.10;99.90
59025;DHT22;44806;48.008;13.666;2023-03-01T07:03:52;-0.10;99.90
59025;DHT22;44806;48.008;13.666;2023-03-01T07:06:19;0.00;99.90
59025;DHT22;44806;48.008;13.666;2023-03-01T07:08:46;0.00;99.90
59025;DHT22;44806;48.008;13.666;2023-03-01T07:11:13;0.10;99.90
59025;DHT22;44806;48.008;13.666;2023-03-01T07:13:41;0.10;99.90
59025;DHT22;44806;48.008;13.666;2023-03-01T07:16:09;0.10;99.90
59025;DHT22;44806;48.008;13.666;2023-03-01T07:18:36;0.20;99.90
59025;DHT22;44806;48.008;13.666;2023-03-01T07:21:06;0.30;99.90
59025;DHT22;44806;48.008;13.666;2023-03-01T07:23:33;0.30;99.90
59025;DHT22;44806;48.008;13.666;2023-03-01T07:26:01;0.40;99.90
59025;DHT22;44806;48.008;13.666;2023-03-01T07:28:28;0.30;99.90
59025;DHT22;44806;48.008;13.666;2023-03-01T07:31:00;0.40;99.90
59025;DHT22;44806;48.008;13.666;2023-03-01T07:33:29;0.50;99.90
59025;DHT22;44806;48.008;13.666;2023-03-01T07:35:57;0.60;99.90
59025;DHT22;44806;48.008;13.666;2023-03-01T07:38:24;0.60;99.90
59025;DHT22;44806;48.008;13.666;2023-03-01T07:40:51;0.60;99.90
59025;DHT22;44806;48.008;13.666;2023-03-01T07:43:18;0.70;99.90
59025;DHT22;44806;48.008;13.666;2023-03-01T07:45:46;0.70;99.90
59025;DHT22;44806;48.008;13.666;2023-03-01T07:48:13;0.70;99.90
59025;DHT22;44806;48.008;13.666;2023-03-01T07:50:41;0.70;99.90
59025;DHT22;44806;48.008;13.666;2023-03-01T07:53:09;0.70;99.90
59025;DHT22;44806;48.008;13.666;2023-03-01T07:55:36;0.70;99.90
59025;DHT22;44806;48.008;13.666;2023-03-01T07:58:03;0.70;99.90
59025;DHT22;44806;48.008;13.666;2023-03-01T08:00:30;0.80;99.90
59025;DHT22;44806;48.008;13.666;2023-03-01T08:02:59;0.90;99.90
59025;DHT22;44806;48.008;13.666;2023-03-01T08:05:26;0.90;99.90
59025;DHT22;44806;48.008;13.666;2023-03-01T08:07:54;0.90;99.90
59025;DHT22;44806;48.008;13.666;2023-03-01T08:10:21;1.00;99.90
59025;DHT22;44806;48.008;13.666;2023-03-01T08:12:48;1.00;99.90
59025;DHT22;44806;48.008;13.666;2023-03-01T08:15:17;1.10;99.90
59025;DHT22;44806;48.008;13.666;2023-03-01T08:17:44;1.20;99.90
59025;DHT22;44806;48.008;13.666;2023-03-01T08:20:11;1.20;99.90
59025;DHT22;44806;48.008;13.666;2023-03-01T08:22:38;1.30;99.90
59025;DHT22;44806;48.008;13.666;2023-03-01T08:25:07;1.30;99.90
59025;DHT22;44806;48.008;13.666;2023-03-01T08:27:34;1.40;99.90
59025;DHT22;44806;48.008;13.666;2023-03-01T08:30:01;1.50;99.90
59025;DHT22;44806;48.008;13.666;2023-03-01T08:32:28;1.60;99.90
59025;DHT22;44806;48.008;13.666;2023-03-01T08:34:55;1.50;99.90
59025;DHT22;44806;48.008;13.666;2023-03-01T08:37:22;1.60;99.90
59025;DHT22;44806;48.008;13.666;2023-03-01T08:39:49;1.60;99.90
59025;DHT22;44806;48.008;13.666;2023-03-01T08:42:17;1.70;99.90
59025;DHT22;44806;48.008;13.666;2023-03-01T08:44:44;1.70;99.90
59025;DHT22;44806;48.008;13.666;2023-03-01T08:47:11;1.70;99.90
59025;DHT22;44806;48.008;13.666;2023-03-01T08:49:37;1.80;99.90
59025;DHT22;44806;48.008;13.666;2023-03-01T08:52:04;1.90;99.90
59025;DHT22;44806;48.008;13.666;2023-03-01T08:54:31;2.00;99.90
59025;DHT22;44806;48.008;13.666;2023-03-01T08:57:01;2.10;99.90
59025;DHT22;44806;48.008;13.666;2023-03-01T08:59:29;2.10;99.90
59025;DHT22;44806;48.008;13.666;2023-03-01T09:02:01;2.10;99.90
59025;DHT22;44806;48.008;13.666;2023-03-01T09:04:28;2.20;99.90
59025;DHT22;44806;48.008;13.666;2023-03-01T09:06:55;2.30;99.50
59025;DHT22;44806;48.008;13.666;2023-03-01T09:09:21;2.40;99.70
59025;DHT22;44806;48.008;13.666;2023-03-01T09:11:48;2.50;99.80
59025;DHT22;44806;48.008;13.666;2023-03-01T09:14:16;2.60;99.90
59025;DHT22;44806;48.008;13.666;2023-03-01T09:16:44;2.50;98.90
59025;DHT22;44806;48.008;13.666;2023-03-01T09:19:12;2.50;98.90
59025;DHT22;44806;48.008;13.666;2023-03-01T09:21:39;2.60;99.40
59025;DHT22;44806;48.008;13.666;2023-03-01T09:24:08;2.70;98.80
59025;DHT22;44806;48.008;13.666;2023-03-01T09:26:38;2.60;98.30
59025;DHT22;44806;48.008;13.666;2023-03-01T09:29:05;2.70;98.80
59025;DHT22;44806;48.008;13.666;2023-03-01T09:31:32;2.70;98.30
59025;DHT22;44806;48.008;13.666;2023-03-01T09:34:00;2.70;98.70
59025;DHT22;44806;48.008;13.666;2023-03-01T09:36:27;2.80;98.80
59025;DHT22;44806;48.008;13.666;2023-03-01T09:38:54;2.90;98.60
59025;DHT22;44806;48.008;13.666;2023-03-01T09:41:42;3.00;98.00
59025;DHT22;44806;48.008;13.666;2023-03-01T09:44:16;3.10;98.90
59025;DHT22;44806;48.008;13.666;2023-03-01T09:46:45;3.20;97.80
59025;DHT22;44806;48.008;13.666;2023-03-01T09:49:16;3.30;98.20
59025;DHT22;44806;48.008;13.666;2023-03-01T09:51:56;3.30;97.60
59025;DHT22;44806;48.008;13.666;2023-03-01T09:54:24;3.50;98.10
59025;DHT22;44806;48.008;13.666;2023-03-01T09:57:07;3.60;98.10
59025;DHT22;44806;48.008;13.666;2023-03-01T09:59:49;3.70;97.80
59025;DHT22;44806;48.008;13.666;2023-03-01T10:02:26;3.80;97.80
59025;DHT22;44806;48.008;13.666;2023-03-01T10:05:05;4.00;97.80
59025;DHT22;44806;48.008;13.666;2023-03-01T10:07:39;4.00;97.40
59025;DHT22;44806;48.008;13.666;2023-03-01T10:10:18;4.00;97.00
59025;DHT22;44806;48.008;13.666;2023-03-01T10:12:47;4.00;97.00
59025;DHT22;44806;48.008;13.666;2023-03-01T10:15:18;4.20;96.80
59025;DHT22;44806;48.008;13.666;2023-03-01T10:17:50;4.20;96.00
59025;DHT22;44806;48.008;13.666;2023-03-01T10:20:21;4.20;95.70
59025;DHT22;44806;48.008;13.666;2023-03-01T10:22:49;4.20;95.70
59025;DHT22;44806;48.008;13.666;2023-03-01T10:25:29;4.30;96.10
59025;DHT22;44806;48.008;13.666;2023-03-01T10:28:02;4.40;96.40
59025;DHT22;44806;48.008;13.666;2023-03-01T10:30:35;4.50;96.10
59025;DHT22;44806;48.008;13.666;2023-03-01T10:33:08;4.60;95.80
59025;DHT22;44806;48.008;13.666;2023-03-01T10:35:41;4.80;96.20
59025;DHT22;44806;48.008;13.666;2023-03-01T10:38:10;4.70;95.00
59025;DHT22;44806;48.008;13.666;2023-03-01T10:40:52;4.70;95.20
59025;DHT22;44806;48.008;13.666;2023-03-01T10:43:20;4.90;95.70
59025;DHT22;44806;48.008;13.666;2023-03-01T10:45:48;5.00;95.50
59025;DHT22;44806;48.008;13.666;2023-03-01T10:48:17;5.10;95.10
59025;DHT22;44806;48.008;13.666;2023-03-01T10:50:48;5.20;95.30
59025;DHT22;44806;48.008;13.666;2023-03-01T10:53:24;5.30;94.70
59025;DHT22;44806;48.008;13.666;2023-03-01T10:55:58;5.40;94.40
59025;DHT22;44806;48.008;13.666;2023-03-01T10:58:27;5.50;93.90
59025;DHT22;44806;48.008;13.666;2023-03-01T11:00:55;5.50;94.80
59025;DHT22;44806;48.008;13.666;2023-03-01T11:03:24;5.60;94.40
59025;DHT22;44806;48.008;13.666;2023-03-01T11:08:39;5.80;94.10
59025;DHT22;44806;48.008;13.666;2023-03-01T11:11:18;5.70;94.30
59025;DHT22;44806;48.008;13.666;2023-03-01T11:14:06;5.80;93.70
59025;DHT22;44806;48.008;13.666;2023-03-01T11:16:35;6.00;93.90
59025;DHT22;44806;48.008;13.666;2023-03-01T11:19:26;6.00;93.70
59025;DHT22;44806;48.008;13.666;2023-03-01T11:21:59;6.10;93.70
59025;DHT22;44806;48.008;13.666;2023-03-01T11:24:34;6.20;94.20
59025;DHT22;44806;48.008;13.666;2023-03-01T11:27:04;6.20;93.40
59025;DHT22;44806;48.008;13.666;2023-03-01T11:29:37;6.40;93.40
59025;DHT22;44806;48.008;13.666;2023-03-01T11:32:08;6.50;93.20
59025;DHT22;44806;48.008;13.666;2023-03-01T11:34:40;6.50;92.70
59025;DHT22;44806;48.008;13.666;2023-03-01T11:37:21;6.50;93.00
59025;DHT22;44806;48.008;13.666;2023-03-01T11:39:56;6.60;94.00
59025;DHT22;44806;48.008;13.666;2023-03-01T11:42:32;6.70;92.80
59025;DHT22;44806;48.008;13.666;2023-03-01T11:45:08;6.70;92.70
59025;DHT22;44806;48.008;13.666;2023-03-01T11:47:52;6.90;92.80
59025;DHT22;44806;48.008;13.666;2023-03-01T11:50:28;6.90;92.60
59025;DHT22;44806;48.008;13.666;2023-03-01T11:53:16;6.80;92.50
59025;DHT22;44806;48.008;13.666;2023-03-01T11:56:02;6.70;92.20
59025;DHT22;44806;48.008;13.666;2023-03-01T12:01:30;6.70;92.10
59025;DHT22;44806;48.008;13.666;2023-03-01T12:04:15;6.80;92.80
59025;DHT22;44806;48.008;13.666;2023-03-01T12:06:52;6.90;92.50
59025;DHT22;44806;48.008;13.666;2023-03-01T12:09:32;6.70;92.40
59025;DHT22;44806;48.008;13.666;2023-03-01T12:15:25;6.90;92.80
59025;DHT22;44806;48.008;13.666;2023-03-01T12:18:15;7.00;92.70
59025;DHT22;44806;48.008;13.666;2023-03-01T12:20:51;7.10;92.00
59025;DHT22;44806;48.008;13.666;2023-03-01T12:23:45;7.10;92.50
59025;DHT22;44806;48.008;13.666;2023-03-01T12:26:21;7.10;92.60
59025;DHT22;44806;48.008;13.666;2023-03-01T12:29:17;7.30;92.60
59025;DHT22;44806;48.008;13.666;2023-03-01T12:37:55;7.50;92.20
59025;DHT22;44806;48.008;13.666;2023-03-01T12:40:46;7.50;92.50
59025;DHT22;44806;48.008;13.666;2023-03-01T12:43:23;7.60;93.10
59025;DHT22;44806;48.008;13.666;2023-03-01T12:46:15;7.60;92.30
59025;DHT22;44806;48.008;13.666;2023-03-01T12:48:52;7.60;91.70
59025;DHT22;44806;48.008;13.666;2023-03-01T12:51:24;7.60;91.70
59025;DHT22;44806;48.008;13.666;2023-03-01T12:53:54;7.70;92.20
59025;DHT22;44806;48.008;13.666;2023-03-01T12:56:24;7.70;92.90
59025;DHT22;44806;48.008;13.666;2023-03-01T12:59:00;7.70;92.30
59025;DHT22;44806;48.008;13.666;2023-03-01T13:01:39;7.70;92.40
59025;DHT22;44806;48.008;13.666;2023-03-01T13:04:16;7.70;91.80
59025;DHT22;44806;48.008;13.666;2023-03-01T13:06:54;7.60;92.20
59025;DHT22;44806;48.008;13.666;2023-03-01T13:09:28;7.70;92.30
59025;DHT22;44806;48.008;13.666;2023-03-01T13:11:56;7.60;92.40
59025;DHT22;44806;48.008;13.666;2023-03-01T13:14:44;7.70;93.50
59025;DHT22;44806;48.008;13.666;2023-03-01T13:17:39;7.80;92.50
59025;DHT22;44806;48.008;13.666;2023-03-01T13:20:13;7.80;92.70
59025;DHT22;44806;48.008;13.666;2023-03-01T13:22:45;7.80;92.50
59025;DHT22;44806;48.008;13.666;2023-03-01T13:25:15;7.70;92.40
59025;DHT22;44806;48.008;13.666;2023-03-01T13:27:43;7.70;92.40
59025;DHT22;44806;48.008;13.666;2023-03-01T13:30:40;7.80;92.60
59025;DHT22;44806;48.008;13.666;2023-03-01T13:33:44;7.90;92.60
59025;DHT22;44806;48.008;13.666;2023-03-01T13:36:47;7.70;92.50
59025;DHT22;44806;48.008;13.666;2023-03-01T13:39:31;7.70;93.10
59025;DHT22;44806;48.008;13.666;2023-03-01T13:42:33;7.90;93.00
59025;DHT22;44806;48.008;13.666;2023-03-01T13:45:03;7.90;93.20
59025;DHT22;44806;48.008;13.666;2023-03-01T13:47:34;8.00;93.40
59025;DHT22;44806;48.008;13.666;2023-03-01T13:50:04;8.00;92.70
59025;DHT22;44806;48.008;13.666;2023-03-01T13:52:38;8.00;92.60
59025;DHT22;44806;48.008;13.666;2023-03-01T13:55:16;7.90;93.00
59025;DHT22;44806;48.008;13.666;2023-03-01T13:57:46;8.00;93.40
59025;DHT22;44806;48.008;13.666;2023-03-01T14:00:34;8.00;92.90
59025;DHT22;44806;48.008;13.666;2023-03-01T14:03:08;8.00;93.40
59025;DHT22;44806;48.008;13.666;2023-03-01T14:05:36;8.00;93.40
59025;DHT22;44806;48.008;13.666;2023-03-01T14:08:03;8.00;93.10
59025;DHT22;44806;48.008;13.666;2023-03-01T14:10:36;8.00;93.20
59025;DHT22;44806;48.008;13.666;2023-03-01T14:13:10;8.00;93.40
59025;DHT22;44806;48.008;13.666;2023-03-01T14:15:44;8.00;93.30
59025;DHT22;44806;48.008;13.666;2023-03-01T14:18:20;8.00;93.50
59025;DHT22;44806;48.008;13.666;2023-03-01T14:20:49;8.00;93.30
59025;DHT22;44806;48.008;13.666;2023-03-01T14:23:19;7.90;93.30
59025;DHT22;44806;48.008;13.666;2023-03-01T14:25:48;8.00;93.60
59025;DHT22;44806;48.008;13.666;2023-03-01T14:28:18;8.00;93.40
59025;DHT22;44806;48.008;13.666;2023-03-01T14:30:47;7.80;93.50
59025;DHT22;44806;48.008;13.666;2023-03-01T14:33:24;7.80;93.70
59025;DHT22;44806;48.008;13.666;2023-03-01T14:35:56;7.80;93.90
59025;DHT22;44806;48.008;13.666;2023-03-01T14:38:29;7.80;94.00
59025;DHT22;44806;48.008;13.666;2023-03-01T14:40:58;7.80;93.90
59025;DHT22;44806;48.008;13.666;2023-03-01T14:43:25;7.80;94.00
59025;DHT22;44806;48.008;13.666;2023-03-01T14:45:53;7.80;94.20
59025;DHT22;44806;48.008;13.666;2023-03-01T14:48:21;7.80;94.30
59025;DHT22;44806;48.008;13.666;2023-03-01T14:50:50;7.90;94.20
59025;DHT22;44806;48.008;13.666;2023-03-01T14:53:19;7.90;94.10
59025;DHT22;44806;48.008;13.666;2023-03-01T14:55:49;8.00;94.00
59025;DHT22;44806;48.008;13.666;2023-03-01T14:58:20;7.90;94.10
59025;DHT22;44806;48.008;13.666;2023-03-01T15:00:50;7.80;93.70
59025;DHT22;44806;48.008;13.666;2023-03-01T15:03:25;7.80;93.60
59025;DHT22;44806;48.008;13.666;2023-03-01T15:05:53;7.80;93.80
59025;DHT22;44806;48.008;13.666;2023-03-01T15:08:23;7.80;93.70
59025;DHT22;44806;48.008;13.666;2023-03-01T15:10:59;7.80;93.40
59025;DHT22;44806;48.008;13.666;2023-03-01T15:13:30;7.90;93.60
59025;DHT22;44806;48.008;13.666;2023-03-01T15:16:04;7.80;93.50
59025;DHT22;44806;48.008;13.666;2023-03-01T15:18:34;7.80;93.40
59025;DHT22;44806;48.008;13.666;2023-03-01T15:21:10;7.70;93.50
59025;DHT22;44806;48.008;13.666;2023-03-01T15:23:41;7.80;93.40
59025;DHT22;44806;48.008;13.666;2023-03-01T15:26:25;7.70;93.50
59025;DHT22;44806;48.008;13.666;2023-03-01T15:28:54;7.70;93.70
59025;DHT22;44806;48.008;13.666;2023-03-01T15:31:25;7.70;93.30
59025;DHT22;44806;48.008;13.666;2023-03-01T15:34:07;7.60;93.40
59025;DHT22;44806;48.008;13.666;2023-03-01T15:36:41;7.50;93.40
59025;DHT22;44806;48.008;13.666;2023-03-01T15:39:34;7.50;93.60
59025;DHT22;44806;48.008;13.666;2023-03-01T15:42:04;7.50;93.60
59025;DHT22;44806;48.008;13.666;2023-03-01T15:44:33;7.40;93.90
59025;DHT22;44806;48.008;13.666;2023-03-01T15:47:01;7.40;94.00
59025;DHT22;44806;48.008;13.666;2023-03-01T15:49:36;7.30;94.40
59025;DHT22;44806;48.008;13.666;2023-03-01T15:52:05;7.20;94.40
59025;DHT22;44806;48.008;13.666;2023-03-01T15:54:32;7.10;94.70
59025;DHT22;44806;48.008;13.666;2023-03-01T15:57:00;7.10;94.90
59025;DHT22;44806;48.008;13.666;2023-03-01T15:59:27;7.10;94.90
59025;DHT22;44806;48.008;13.666;2023-03-01T16:01:54;7.10;94.80
59025;DHT22;44806;48.008;13.666;2023-03-01T16:04:21;7.10;95.10
59025;DHT22;44806;48.008;13.666;2023-03-01T16:06:53;7.00;95.00